sensor_id;sensor_type;location;lat;lon;timestamp;temperature;humidity
14095;DHT22;18096;48.142;16.290;2022-10-16T00:01:15;12.90;99.90
14095;DHT22;18096;48.142;16.290;2022-10-16T00:03:43;13.00;99.90
14095;DHT22;18096;48.142;16.290;2022-10-16T00:06:10;12.90;99.90
14095;DHT22;18096;48.142;16.290;2022-10-16T00:08:36;13.00;99.90
14095;DHT22;18096;48.142;16.290;2022-10-16T00:11:08;13.00;99.90
14095;DHT22;18096;48.142;16.290;2022-10-16T00:13:36;12.90;99.90
14095;DHT22;18096;48.142;16.290;2022-10-16T00:16:03;12.90;99.90
14095;DHT22;18096;48.142;16.290;2022-10-16T00:18:29;13.00;99.90
14095;DHT22;18096;48.142;16.290;2022-10-16T00:20:56;12.90;99.90
14095;DHT22;18096;48.142;16.290;2022-10-16T00:23:26;12.90;99.90
14095;DHT22;18096;48.142;16.290;2022-10-16T00:25:59;12.90;99.90
14095;DHT22;18096;48.142;16.290;2022-10-16T00:28:26;12.90;99.90
14095;DHT22;18096;48.142;16.290;2022-10-16T00:30:51;12.90;99.90
14095;DHT22;18096;48.142;16.290;2022-10-16T00:33:17;12.90;99.90
14095;DHT22;18096;48.142;16.290;2022-10-16T00:35:43;12.90;99.90
14095;DHT22;18096;48.142;16.290;2022-10-16T00:38:09;12.90;99.90
14095;DHT22;18096;48.142;16.290;2022-10-16T00:40:35;12.90;99.90
14095;DHT22;18096;48.142;16.290;2022-10-16T00:43:00;12.90;99.90
14095;DHT22;18096;48.142;16.290;2022-10-16T00:45:26;12.80;99.90
14095;DHT22;18096;48.142;16.290;2022-10-16T00:47:54;12.80;99.90
14095;DHT22;18096;48.142;16.290;2022-10-16T00:52:50;12.80;99.90
14095;DHT22;18096;48.142;16.290;2022-10-16T00:55:17;12.80;99.90
14095;DHT22;18096;48.142;16.290;2022-10-16T00:57:44;12.80;99.90
14095;DHT22;18096;48.142;16.290;2022-10-16T01:00:17;12.80;99.90
14095;DHT22;18096;48.142;16.290;2022-10-16T01:02:43;12.80;99.90
14095;DHT22;18096;48.142;16.290;2022-10-16T01:05:09;12.80;99.90
14095;DHT22;18096;48.142;16.290;2022-10-16T01:13:05;12.80;99.90
14095;DHT22;18096;48.142;16.290;2022-10-16T01:18:41;12.70;99.90
14095;DHT22;18096;48.142;16.290;2022-10-16T01:21:17;12.70;99.90
14095;DHT22;18096;48.142;16.290;2022-10-16T01:26:37;12.70;99.90
14095;DHT22;18096;48.142;16.290;2022-10-16T01:29:20;12.60;99.90
14095;DHT22;18096;48.142;16.290;2022-10-16T01:31:50;12.60;99.90
14095;DHT22;18096;48.142;16.290;2022-10-16T01:34:22;12.60;99.90
14095;DHT22;18096;48.142;16.290;2022-10-16T01:36:54;12.60;99.90
14095;DHT22;18096;48.142;16.290;2022-10-16T01:39:24;12.50;99.90
14095;DHT22;18096;48.142;16.290;2022-10-16T01:42:19;12.50;99.90
14095;DHT22;18096;48.142;16.290;2022-10-16T01:44:47;12.50;99.90
14095;DHT22;18096;48.142;16.290;2022-10-16T01:47:15;12.50;99.90
14095;DHT22;18096;48.142;16.290;2022-10-16T01:49:43;12.50;99.90
14095;DHT22;18096;48.142;16.290;2022-10-16T01:52:16;12.50;99.90
14095;DHT22;18096;48.142;16.290;2022-10-16T01:54:46;12.50;99.90
14095;DHT22;18096;48.142;16.290;2022-10-16T01:57:14;12.40;99.90
14095;DHT22;18096;48.142;16.290;2022-10-16T01:59:49;12.50;99.90
14095;DHT22;18096;48.142;16.290;2022-10-16T02:02:18;12.40;99.90
14095;DHT22;18096;48.142;16.290;2022-10-16T02:04:58;12.40;99.90
14095;DHT22;18096;48.142;16.290;2022-10-16T02:07:26;12.40;99.90
14095;DHT22;18096;48.142;16.290;2022-10-16T02:09:52;12.40;99.90
14095;DHT22;18096;48.142;16.290;2022-10-16T02:12:28;12.40;99.90
14095;DHT22;18096;48.142;16.290;2022-10-16T02:14:54;12.30;99.90
14095;DHT22;18096;48.142;16.290;2022-10-16T02:17:20;12.30;99.90
14095;DHT22;18096;48.142;16.290;2022-10-16T02:19:47;12.30;99.90
14095;DHT22;18096;48.142;16.290;2022-10-16T02:22:26;12.30;99.90
14095;DHT22;18096;48.142;16.290;2022-10-16T02:24:57;12.30;99.90
14095;DHT22;18096;48.142;16.290;2022-10-16T02:30:07;12.30;99.90
14095;DHT22;18096;48.142;16.290;2022-10-16T02:32:34;12.30;99.90
14095;DHT22;18096;48.142;16.290;2022-10-16T02:35:01;12.30;99.90
14095;DHT22;18096;48.142;16.290;2022-10-16T02:37:28;12.30;99.90
14095;DHT22;18096;48.142;16.290;2022-10-16T02:39:56;12.30;99.90
14095;DHT22;18096;48.142;16.290;2022-10-16T02:42:37;12.30;99.90
14095;DHT22;18096;48.142;16.290;2022-10-16T02:45:04;12.30;99.90
14095;DHT22;18096;48.142;16.290;2022-10-16T02:47:30;12.30;99.90
14095;DHT22;18096;48.142;16.290;2022-10-16T02:49:55;12.30;99.90
14095;DHT22;18096;48.142;16.290;2022-10-16T02:52:21;12.30;99.90
14095;DHT22;18096;48.142;16.290;2022-10-16T02:54:47;12.20;99.90
14095;DHT22;18096;48.142;16.290;2022-10-16T02:57:12;12.30;99.90
14095;DHT22;18096;48.142;16.290;2022-10-16T02:59:38;12.20;99.90
14095;DHT22;18096;48.142;16.290;2022-10-16T03:02:04;12.30;99.90
14095;DHT22;18096;48.142;16.290;2022-10-16T03:04:29;12.20;99.90
14095;DHT22;18096;48.142;16.290;2022-10-16T03:06:55;12.20;99.90
14095;DHT22;18096;48.142;16.290;2022-10-16T03:09:21;12.20;99.90
14095;DHT22;18096;48.142;16.290;2022-10-16T03:11:46;12.20;99.90
14095;DHT22;18096;48.142;16.290;2022-10-16T03:14:12;12.20;99.90
14095;DHT22;18096;48.142;16.290;2022-10-16T03:16:37;12.20;99.90
14095;DHT22;18096;48.142;16.290;2022-10-16T03:19:03;12.20;99.90
14095;DHT22;18096;48.142;16.290;2022-10-16T03:21:29;12.20;99.90
14095;DHT22;18096;48.142;16.290;2022-10-16T03:23:55;12.20;99.90
14095;DHT22;18096;48.142;16.290;2022-10-16T03:26:20;12.10;99.90
14095;DHT22;18096;48.142;16.290;2022-10-16T03:28:46;12.10;99.90
14095;DHT22;18096;48.142;16.290;2022-10-16T03:31:12;12.10;99.90
14095;DHT22;18096;48.142;16.290;2022-10-16T03:33:38;12.10;99.90
14095;DHT22;18096;48.142;16.290;2022-10-16T03:36:04;12.10;99.90
14095;DHT22;18096;48.142;16.290;2022-10-16T03:38:29;12.10;99.90
14095;DHT22;18096;48.142;16.290;2022-10-16T03:40:55;12.10;99.90
14095;DHT22;18096;48.142;16.290;2022-10-16T03:43:21;12.10;99.90
14095;DHT22;18096;48.142;16.290;2022-10-16T03:45:46;12.10;99.90
14095;DHT22;18096;48.142;16.290;2022-10-16T03:48:12;12.10;99.90
14095;DHT22;18096;48.142;16.290;2022-10-16T03:50:38;12.10;99.90
14095;DHT22;18096;48.142;16.290;2022-10-16T03:53:03;12.10;99.90
14095;DHT22;18096;48.142;16.290;2022-10-16T03:55:29;12.10;99.90
14095;DHT22;18096;48.142;16.290;2022-10-16T03:57:55;12.00;99.90
14095;DHT22;18096;48.142;16.290;2022-10-16T04:00:20;12.00;99.90
14095;DHT22;18096;48.142;16.290;2022-10-16T04:02:46;12.00;99.90
14095;DHT22;18096;48.142;16.290;2022-10-16T04:05:11;12.00;99.90
14095;DHT22;18096;48.142;16.290;2022-10-16T04:07:37;12.00;99.90
14095;DHT22;18096;48.142;16.290;2022-10-16T04:10:04;12.00;99.90
14095;DHT22;18096;48.142;16.290;2022-10-16T04:12:29;12.00;99.90
14095;DHT22;18096;48.142;16.290;2022-10-16T04:14:55;12.10;99.90
14095;DHT22;18096;48.142;16.290;2022-10-16T04:17:21;12.00;99.90
14095;DHT22;18096;48.142;16.290;2022-10-16T04:19:46;12.00;99.90
14095;DHT22;18096;48.142;16.290;2022-10-16T04:22:12;12.00;99.90
14095;DHT22;18096;48.142;16.290;2022-10-16T04:24:38;12.00;99.90
14095;DHT22;18096;48.142;16.290;2022-10-16T04:27:04;12.00;99.90
14095;DHT22;18096;48.142;16.290;2022-10-16T04:29:29;12.00;99.90
14095;DHT22;18096;48.142;16.290;2022-10-16T04:31:55;12.00;99.90
14095;DHT22;18096;48.142;16.290;2022-10-16T04:34:21;11.90;99.90
14095;DHT22;18096;48.142;16.290;2022-10-16T04:36:47;11.90;99.90
14095;DHT22;18096;48.142;16.290;2022-10-16T04:39:14;11.90;99.90
14095;DHT22;18096;48.142;16.290;2022-10-16T04:41:40;11.90;99.90
14095;DHT22;18096;48.142;16.290;2022-10-16T04:44:06;11.90;99.90
14095;DHT22;18096;48.142;16.290;2022-10-16T04:46:31;11.90;99.90
14095;DHT22;18096;48.142;16.290;2022-10-16T04:48:57;11.90;99.90
14095;DHT22;18096;48.142;16.290;2022-10-16T04:51:23;11.90;99.90
14095;DHT22;18096;48.142;16.290;2022-10-16T04:53:48;11.90;99.90
14095;DHT22;18096;48.142;16.290;2022-10-16T04:56:14;11.90;99.90
14095;DHT22;18096;48.142;16.290;2022-10-16T04:58:40;11.90;99.90
14095;DHT22;18096;48.142;16.290;2022-10-16T05:01:06;11.90;99.90
14095;DHT22;18096;48.142;16.290;2022-10-16T05:03:32;11.90;99.90
14095;DHT22;18096;48.142;16.290;2022-10-16T05:05:57;11.90;99.90
14095;DHT22;18096;48.142;16.290;2022-10-16T05:08:23;11.90;99.90
14095;DHT22;18096;48.142;16.290;2022-10-16T05:10:49;11.90;99.90
14095;DHT22;18096;48.142;16.290;2022-10-16T05:13:14;11.90;99.90
14095;DHT22;18096;48.142;16.290;2022-10-16T05:15:40;11.90;99.90
14095;DHT22;18096;48.142;16.290;2022-10-16T05:18:06;11.90;99.90
14095;DHT22;18096;48.142;16.290;2022-10-16T05:20:31;11.90;99.90
14095;DHT22;18096;48.142;16.290;2022-10-16T05:22:57;11.90;99.90
14095;DHT22;18096;48.142;16.290;2022-10-16T05:25:23;11.90;99.90
14095;DHT22;18096;48.142;16.290;2022-10-16T05:27:49;11.90;99.90
14095;DHT22;18096;48.142;16.290;2022-10-16T05:30:16;11.90;99.90
14095;DHT22;18096;48.142;16.290;2022-10-16T05:32:45;11.90;99.90
14095;DHT22;18096;48.142;16.290;2022-10-16T05:35:11;11.90;99.90
14095;DHT22;18096;48.142;16.290;2022-10-16T05:37:36;11.80;99.90
14095;DHT22;18096;48.142;16.290;2022-10-16T05:40:02;11.80;99.90
14095;DHT22;18096;48.142;16.290;2022-10-16T05:42:30;11.80;99.90
14095;DHT22;18096;48.142;16.290;2022-10-16T05:44:55;11.80;99.90
14095;DHT22;18096;48.142;16.290;2022-10-16T05:47:21;11.80;99.90
14095;DHT22;18096;48.142;16.290;2022-10-16T05:49:47;11.80;99.90
14095;DHT22;18096;48.142;16.290;2022-10-16T05:52:12;11.80;99.90
14095;DHT22;18096;48.142;16.290;2022-10-16T05:54:38;11.80;99.90
14095;DHT22;18096;48.142;16.290;2022-10-16T05:57:03;11.80;99.90
14095;DHT22;18096;48.142;16.290;2022-10-16T05:59:31;11.80;99.90
14095;DHT22;18096;48.142;16.290;2022-10-16T06:01:57;11.80;99.90
14095;DHT22;18096;48.142;16.290;2022-10-16T06:04:23;11.70;99.90
14095;DHT22;18096;48.142;16.290;2022-10-16T06:06:48;11.70;99.90
14095;DHT22;18096;48.142;16.290;2022-10-16T06:09:14;11.70;99.90
14095;DHT22;18096;48.142;16.290;2022-10-16T06:11:39;11.70;99.90
14095;DHT22;18096;48.142;16.290;2022-10-16T06:14:05;11.70;99.90
14095;DHT22;18096;48.142;16.290;2022-10-16T06:16:38;11.70;99.90
14095;DHT22;18096;48.142;16.290;2022-10-16T06:19:04;11.70;99.90
14095;DHT22;18096;48.142;16.290;2022-10-16T06:21:31;11.60;99.90
14095;DHT22;18096;48.142;16.290;2022-10-16T06:23:58;11.60;99.90
14095;DHT22;18096;48.142;16.290;2022-10-16T06:26:26;11.60;99.90
14095;DHT22;18096;48.142;16.290;2022-10-16T06:28:54;11.60;99.90
14095;DHT22;18096;48.142;16.290;2022-10-16T06:31:20;11.60;99.90
14095;DHT22;18096;48.142;16.290;2022-10-16T06:33:50;11.60;99.90
14095;DHT22;18096;48.142;16.290;2022-10-16T06:36:17;11.70;99.90
14095;DHT22;18096;48.142;16.290;2022-10-16T06:38:44;11.70;99.90
14095;DHT22;18096;48.142;16.290;2022-10-16T06:41:13;11.70;99.90
14095;DHT22;18096;48.142;16.290;2022-10-16T06:43:38;11.70;99.90
14095;DHT22;18096;48.142;16.290;2022-10-16T06:46:06;11.70;99.90
14095;DHT22;18096;48.142;16.290;2022-10-16T06:48:36;11.80;99.90
14095;DHT22;18096;48.142;16.290;2022-10-16T06:51:08;11.80;99.90
14095;DHT22;18096;48.142;16.290;2022-10-16T06:53:35;11.80;99.90
14095;DHT22;18096;48.142;16.290;2022-10-16T06:56:13;11.80;99.90
14095;DHT22;18096;48.142;16.290;2022-10-16T06:58:39;11.80;99.90
14095;DHT22;18096;48.142;16.290;2022-10-16T07:01:05;11.80;99.90
14095;DHT22;18096;48.142;16.290;2022-10-16T07:03:31;11.80;99.90
14095;DHT22;18096;48.142;16.290;2022-10-16T07:06:00;11.80;99.90
14095;DHT22;18096;48.142;16.290;2022-10-16T07:08:26;11.80;99.90
14095;DHT22;18096;48.142;16.290;2022-10-16T07:11:02;11.80;99.90
14095;DHT22;18096;48.142;16.290;2022-10-16T07:13:27;11.90;99.90
14095;DHT22;18096;48.142;16.290;2022-10-16T07:15:53;11.90;99.90
14095;DHT22;18096;48.142;16.290;2022-10-16T07:18:19;11.90;99.90
14095;DHT22;18096;48.142;16.290;2022-10-16T07:20:44;11.90;99.90
14095;DHT22;18096;48.142;16.290;2022-10-16T07:23:10;11.90;99.90
14095;DHT22;18096;48.142;16.290;2022-10-16T07:25:36;12.00;99.90
14095;DHT22;18096;48.142;16.290;2022-10-16T07:28:01;12.00;99.90
14095;DHT22;18096;48.142;16.290;2022-10-16T07:30:27;12.00;99.90
14095;DHT22;18096;48.142;16.290;2022-10-16T07:32:53;12.00;99.90
14095;DHT22;18096;48.142;16.290;2022-10-16T07:35:18;12.00;99.90
14095;DHT22;18096;48.142;16.290;2022-10-16T07:37:45;12.10;99.90
14095;DHT22;18096;48.142;16.290;2022-10-16T07:40:11;12.10;99.90
14095;DHT22;18096;48.142;16.290;2022-10-16T07:42:36;12.10;99.90
14095;DHT22;18096;48.142;16.290;2022-10-16T07:45:02;12.10;99.90
14095;DHT22;18096;48.142;16.290;2022-10-16T07:47:28;12.10;99.90
14095;DHT22;18096;48.142;16.290;2022-10-16T07:49:54;12.10;99.90
14095;DHT22;18096;48.142;16.290;2022-10-16T07:52:19;12.10;99.90
14095;DHT22;18096;48.142;16.290;2022-10-16T07:54:45;12.20;99.90
14095;DHT22;18096;48.142;16.290;2022-10-16T07:57:11;12.20;99.90
14095;DHT22;18096;48.142;16.290;2022-10-16T07:59:36;12.30;99.90
14095;DHT22;18096;48.142;16.290;2022-10-16T08:02:02;12.30;99.90
14095;DHT22;18096;48.142;16.290;2022-10-16T08:04:28;12.30;99.90
14095;DHT22;18096;48.142;16.290;2022-10-16T08:06:53;12.30;99.90
14095;DHT22;18096;48.142;16.290;2022-10-16T08:09:19;12.30;99.90
14095;DHT22;18096;48.142;16.290;2022-10-16T08:11:45;12.40;99.90
14095;DHT22;18096;48.142;16.290;2022-10-16T08:14:11;12.40;99.90
14095;DHT22;18096;48.142;16.290;2022-10-16T08:16:36;12.40;99.90
14095;DHT22;18096;48.142;16.290;2022-10-16T08:19:02;12.40;99.90
14095;DHT22;18096;48.142;16.290;2022-10-16T08:21:28;12.50;99.90
14095;DHT22;18096;48.142;16.290;2022-10-16T08:23:54;12.50;99.90
14095;DHT22;18096;48.142;16.290;2022-10-16T08:26:20;12.50;99.90
14095;DHT22;18096;48.142;16.290;2022-10-16T08:28:49;12.50;99.90
14095;DHT22;18096;48.142;16.290;2022-10-16T08:31:15;12.50;99.90
14095;DHT22;18096;48.142;16.290;2022-10-16T08:33:44;12.50;99.90
14095;DHT22;18096;48.142;16.290;2022-10-16T08:36:11;12.50;99.90
14095;DHT22;18096;48.142;16.290;2022-10-16T08:38:37;12.50;99.90
14095;DHT22;18096;48.142;16.290;2022-10-16T08:46:19;12.50;99.90
14095;DHT22;18096;48.142;16.290;2022-10-16T08:48:54;12.50;99.90
14095;DHT22;18096;48.142;16.290;2022-10-16T08:51:25;12.60;99.90
14095;DHT22;18096;48.142;16.290;2022-10-16T08:53:53;12.60;99.90
14095;DHT22;18096;48.142;16.290;2022-10-16T08:56:20;12.60;99.90
14095;DHT22;18096;48.142;16.290;2022-10-16T08:58:46;12.60;99.90
14095;DHT22;18096;48.142;16.290;2022-10-16T09:01:15;12.60;99.90
14095;DHT22;18096;48.142;16.290;2022-10-16T09:20:15;12.80;99.90
14095;DHT22;18096;48.142;16.290;2022-10-16T09:22:41;12.90;99.90
14095;DHT22;18096;48.142;16.290;2022-10-16T09:25:16;12.90;99.90
14095;DHT22;18096;48.142;16.290;2022-10-16T09:27:45;12.80;99.90
14095;DHT22;18096;48.142;16.290;2022-10-16T09:30:17;12.80;99.90
14095;DHT22;18096;48.142;16.290;2022-10-16T09:32:45;12.80;99.90
14095;DHT22;18096;48.142;16.290;2022-10-16T09:35:21;12.80;99.90
14095;DHT22;18096;48.142;16.290;2022-10-16T09:37:50;12.90;99.90
14095;DHT22;18096;48.142;16.290;2022-10-16T09:40:31;12.90;99.90
14095;DHT22;18096;48.142;16.290;2022-10-16T09:43:21;13.00;99.90
14095;DHT22;18096;48.142;16.290;2022-10-16T09:46:36;13.00;99.90
14095;DHT22;18096;48.142;16.290;2022-10-16T09:48:49;13.00;99.90
14095;DHT22;18096;48.142;16.290;2022-10-16T09:53:46;13.10;99.90
14095;DHT22;18096;48.142;16.290;2022-10-16T09:56:22;13.10;99.90
14095;DHT22;18096;48.142;16.290;2022-10-16T09:58:57;13.10;99.90
14095;DHT22;18096;48.142;16.290;2022-10-16T10:01:30;13.10;99.90
14095;DHT22;18096;48.142;16.290;2022-10-16T10:03:57;13.10;99.90
14095;DHT22;18096;48.142;16.290;2022-10-16T10:06:44;13.10;99.90
14095;DHT22;18096;48.142;16.290;2022-10-16T10:11:48;13.20;99.90
14095;DHT22;18096;48.142;16.290;2022-10-16T10:14:23;13.20;99.90
14095;DHT22;18096;48.142;16.290;2022-10-16T10:16:51;13.20;99.90
14095;DHT22;18096;48.142;16.290;2022-10-16T10:19:18;13.20;99.90
14095;DHT22;18096;48.142;16.290;2022-10-16T10:21:45;13.20;99.90
14095;DHT22;18096;48.142;16.290;2022-10-16T10:24:16;13.20;99.90
14095;DHT22;18096;48.142;16.290;2022-10-16T10:26:49;13.20;99.90
14095;DHT22;18096;48.142;16.290;2022-10-16T10:29:35;13.30;99.90
14095;DHT22;18096;48.142;16.290;2022-10-16T10:32:28;13.30;99.90
14095;DHT22;18096;48.142;16.290;2022-10-16T10:40:52;13.30;99.90
14095;DHT22;18096;48.142;16.290;2022-10-16T10:46:12;13.40;99.90
14095;DHT22;18096;48.142;16.290;2022-10-16T11:05:36;13.50;99.90
14095;DHT22;18096;48.142;16.290;2022-10-16T11:08:23;13.60;99.90
14095;DHT22;18096;48.142;16.290;2022-10-16T11:11:08;13.60;99.90
14095;DHT22;18096;48.142;16.290;2022-10-16T11:13:55;13.60;99.90
14095;DHT22;18096;48.142;16.290;2022-10-16T11:16:27;13.60;99.90
14095;DHT22;18096;48.142;16.290;2022-10-16T11:22:11;13.70;99.90
14095;DHT22;18096;48.142;16.290;2022-10-16T11:24:48;13.80;99.90
14095;DHT22;18096;48.142;16.290;2022-10-16T11:27:19;13.90;99.90
14095;DHT22;18096;48.142;16.290;2022-10-16T11:30:12;13.90;99.90
14095;DHT22;18096;48.142;16.290;2022-10-16T11:36:11;14.00;99.90
14095;DHT22;18096;48.142;16.290;2022-10-16T11:38:55;14.10;99.90
14095;DHT22;18096;48.142;16.290;2022-10-16T11:44:53;14.20;99.90
14095;DHT22;18096;48.142;16.290;2022-10-16T11:50:06;14.20;99.90
14095;DHT22;18096;48.142;16.290;2022-10-16T11:52:48;14.30;99.90
14095;DHT22;18096;48.142;16.290;2022-10-16T11:55:21;14.40;99.90
14095;DHT22;18096;48.142;16.290;2022-10-16T11:58:01;14.40;99.90
14095;DHT22;18096;48.142;16.290;2022-10-16T12:00:40;14.50;99.90
14095;DHT22;18096;48.142;16.290;2022-10-16T12:03:21;14.60;99.90
14095;DHT22;18096;48.142;16.290;2022-10-16T12:06:04;14.60;99.90
14095;DHT22;18096;48.142;16.290;2022-10-16T12:08:34;14.70;99.90
14095;DHT22;18096;48.142;16.290;2022-10-16T12:11:09;14.70;99.90
14095;DHT22;18096;48.142;16.290;2022-10-16T12:13:38;14.80;99.90
14095;DHT22;18096;48.142;16.290;2022-10-16T12:18:41;14.80;99.90
14095;DHT22;18096;48.142;16.290;2022-10-16T12:21:08;14.80;99.90
14095;DHT22;18096;48.142;16.290;2022-10-16T12:23:46;14.80;99.90
14095;DHT22;18096;48.142;16.290;2022-10-16T12:26:13;14.80;99.90
14095;DHT22;18096;48.142;16.290;2022-10-16T12:28:38;14.90;99.90
14095;DHT22;18096;48.142;16.290;2022-10-16T12:31:07;14.90;99.90
14095;DHT22;18096;48.142;16.290;2022-10-16T12:33:36;15.00;99.90
14095;DHT22;18096;48.142;16.290;2022-10-16T12:36:15;15.00;99.90
14095;DHT22;18096;48.142;16.290;2022-10-16T12:38:49;15.10;99.90
14095;DHT22;18096;48.142;16.290;2022-10-16T12:41:29;15.10;99.90
14095;DHT22;18096;48.142;16.290;2022-10-16T12:43:56;15.20;99.90
14095;DHT22;18096;48.142;16.290;2022-10-16T12:46:33;15.20;99.90
14095;DHT22;18096;48.142;16.290;2022-10-16T12:51:38;15.30;99.90
14095;DHT22;18096;48.142;16.290;2022-10-16T13:13:50;15.70;99.90
14095;DHT22;18096;48.142;16.290;2022-10-16T13:16:43;15.70;99.90
14095;DHT22;18096;48.142;16.290;2022-10-16T13:22:23;15.80;99.90
14095;DHT22;18096;48.142;16.290;2022-10-16T13:28:04;16.00;99.90
14095;DHT22;18096;48.142;16.290;2022-10-16T13:30:36;16.00;99.90
14095;DHT22;18096;48.142;16.290;2022-10-16T13:33:03;16.10;99.90
14095;DHT22;18096;48.142;16.290;2022-10-16T13:35:32;16.10;99.90
14095;DHT22;18096;48.142;16.290;2022-10-16T13:40:29;16.10;99.90
14095;DHT22;18096;48.142;16.290;2022-10-16T13:42:55;16.10;99.90
14095;DHT22;18096;48.142;16.290;2022-10-16T13:45:24;16.20;99.90
14095;DHT22;18096;48.142;16.290;2022-10-16T13:48:04;16.20;99.90
14095;DHT22;18096;48.142;16.290;2022-10-16T13:50:30;16.20;99.90
14095;DHT22;18096;48.142;16.290;2022-10-16T13:53:15;16.20;99.90
14095;DHT22;18096;48.142;16.290;2022-10-16T13:55:41;16.20;99.90
14095;DHT22;18096;48.142;16.290;2022-10-16T13:58:13;16.30;99.90
14095;DHT22;18096;48.142;16.290;2022-10-16T14:00:41;16.30;99.90
14095;DHT22;18096;48.142;16.290;2022-10-16T14:03:18;16.30;99.90
14095;DHT22;18096;48.142;16.290;2022-10-16T14:05:53;16.40;99.90
14095;DHT22;18096;48.142;16.290;2022-10-16T14:08:21;16.40;99.90
14095;DHT22;18096;48.142;16.290;2022-10-16T14:10:53;16.40;99.90
14095;DHT22;18096;48.142;16.290;2022-10-16T14:13:24;16.40;99.90
14095;DHT22;18096;48.142;16.290;2022-10-16T14:15:52;16.40;99.90
14095;DHT22;18096;48.142;16.290;2022-10-16T14:18:25;16.50;99.90
14095;DHT22;18096;48.142;16.290;2022-10-16T14:20:52;16.50;99.90
14095;DHT22;18096;48.142;16.290;2022-10-16T14:23:23;16.50;99.90
14095;DHT22;18096;48.142;16.290;2022-10-16T14:25:53;16.50;99.90
14095;DHT22;18096;48.142;16.290;2022-10-16T14:28:21;16.50;99.90
14095;DHT22;18096;48.142;16.290;2022-10-16T14:30:56;16.50;99.90
14095;DHT22;18096;48.142;16.290;2022-10-16T14:36:03;16.50;99.90
14095;DHT22;18096;48.142;16.290;2022-10-16T14:38:30;16.60;99.90
14095;DHT22;18096;48.142;16.290;2022-10-16T14:40:58;16.60;99.90
14095;DHT22;18096;48.142;16.290;2022-10-16T14:43:35;16.60;99.90
14095;DHT22;18096;48.142;16.290;2022-10-16T14:46:28;16.60;99.90
14095;DHT22;18096;48.142;16.290;2022-10-16T14:48:58;16.60;99.90
14095;DHT22;18096;48.142;16.290;2022-10-16T14:51:25;16.70;99.90
14095;DHT22;18096;48.142;16.290;2022-10-16T14:53:51;16.60;99.90
14095;DHT22;18096;48.142;16.290;2022-10-16T14:56:26;16.70;99.90
14095;DHT22;18096;48.142;16.290;2022-10-16T14:58:55;16.70;99.90
14095;DHT22;18096;48.142;16.290;2022-10-16T15:01:21;16.60;99.90
14095;DHT22;18096;48.142;16.290;2022-10-16T15:03:47;16.60;99.90
14095;DHT22;18096;48.142;16.290;2022-10-16T15:06:14;16.60;99.90
14095;DHT22;18096;48.142;16.290;2022-10-16T15:08:40;16.70;99.90
14095;DHT22;18096;48.142;16.290;2022-10-16T15:11:14;16.70;99.90
14095;DHT22;18096;48.142;16.290;2022-10-16T15:13:41;16.60;99.90
14095;DHT22;18096;48.142;16.290;2022-10-16T15:16:15;16.60;99.90
14095;DHT22;18096;48.142;16.290;2022-10-16T15:18:41;16.60;99.90
14095;DHT22;18096;48.142;16.290;2022-10-16T15:21:07;16.60;99.90
14095;DHT22;18096;48.142;16.290;2022-10-16T15:23:33;16.60;99.90
14095;DHT22;18096;48.142;16.290;2022-10-16T15:25:59;16.60;99.90
14095;DHT22;18096;48.142;16.290;2022-10-16T15:28:25;16.60;99.90
14095;DHT22;18096;48.142;16.290;2022-10-16T15:30:53;16.60;99.90
14095;DHT22;18096;48.142;16.290;2022-10-16T15:33:25;16.60;99.90
14095;DHT22;18096;48.142;16.290;2022-10-16T15:35:53;16.60;99.90
14095;DHT22;18096;48.142;16.290;2022-10-16T15:38:20;16.50;99.90
14095;DHT22;18096;48.142;16.290;2022-10-16T15:40:47;16.50;99.90
14095;DHT22;18096;48.142;16.290;2022-10-16T15:43:13;16.40;99.90
14095;DHT22;18096;48.142;16.290;2022-10-16T15:45:39;16.40;99.90
14095;DHT22;18096;48.142;16.290;2022-10-16T15:48:05;16.40;99.90
14095;DHT22;18096;48.142;16.290;2022-10-16T15:50:32;16.30;99.90
14095;DHT22;18096;48.142;16.290;2022-10-16T15:52:58;16.30;99.90
14095;DHT22;18096;48.142;16.290;2022-10-16T15:55:23;16.20;99.90
14095;DHT22;18096;48.142;16.290;2022-10-16T15:57:49;16.20;99.90
14095;DHT22;18096;48.142;16.290;2022-10-16T16:00:18;16.20;99.90
14095;DHT22;18096;48.142;16.290;2022-10-16T16:02:52;16.20;99.90
14095;DHT22;18096;48.142;16.290;2022-10-16T16:05:19;16.20;99.90
14095;DHT22;18096;48.142;16.290;2022-10-16T16:07:45;16.20;99.90
14095;DHT22;18096;48.142;16.290;2022-10-16T16:10:11;16.10;99.90
14095;DHT22;18096;48.142;16.290;2022-10-16T16:12:38;16.10;99.90
14095;DHT22;18096;48.142;16.290;2022-10-16T16:15:05;16.00;99.90
14095;DHT22;18096;48.142;16.290;2022-10-16T16:17:32;15.90;99.90
14095;DHT22;18096;48.142;16.290;2022-10-16T16:19:58;15.90;99.90
14095;DHT22;18096;48.142;16.290;2022-10-16T16:22:23;15.80;99.90
14095;DHT22;18096;48.142;16.290;2022-10-16T16:24:50;15.70;99.90
14095;DHT22;18096;48.142;16.290;2022-10-16T16:27:15;15.70;99.90
14095;DHT22;18096;48.142;16.290;2022-10-16T16:29:41;15.60;99.90
14095;DHT22;18096;48.142;16.290;2022-10-16T16:32:07;15.60;99.90
14095;DHT22;18096;48.142;16.290;2022-10-16T16:34:33;15.60;99.90
14095;DHT22;18096;48.142;16.290;2022-10-16T16:36:59;15.50;99.90
14095;DHT22;18096;48.142;16.290;2022-10-16T16:39:24;15.50;99.90
14095;DHT22;18096;48.142;16.290;2022-10-16T16:41:50;15.40;99.90
14095;DHT22;18096;48.142;16.290;2022-10-16T16:44:16;15.40;99.90
14095;DHT22;18096;48.142;16.290;2022-10-16T16:46:43;15.30;99.90
14095;DHT22;18096;48.142;16.290;2022-10-16T16:49:11;15.20;99.90
14095;DHT22;18096;48.142;16.290;2022-10-16T16:51:38;15.20;99.90
14095;DHT22;18096;48.142;16.290;2022-10-16T16:54:04;15.20;99.90
14095;DHT22;18096;48.142;16.290;2022-10-16T16:56:30;15.10;99.90
14095;DHT22;18096;48.142;16.290;2022-10-16T16:58:57;15.10;99.90
14095;DHT22;18096;48.142;16.290;2022-10-16T17:01:24;15.10;99.90
14095;DHT22;18096;48.142;16.290;2022-10-16T17:03:52;15.00;99.90
14095;DHT22;18096;48.142;16.290;2022-10-16T17:06:26;15.00;99.90
14095;DHT22;18096;48.142;16.290;2022-10-16T17:08:52;15.00;99.90
14095;DHT22;18096;48.142;16.290;2022-10-16T17:11:24;14.90;99.90
14095;DHT22;18096;48.142;16.290;2022-10-16T17:13:51;14.90;99.90
14095;DHT22;18096;48.142;16.290;2022-10-16T17:16:19;14.80;99.90
14095;DHT22;18096;48.142;16.290;2022-10-16T17:18:45;14.80;99.90
14095;DHT22;18096;48.142;16.290;2022-10-16T17:21:11;14.80;99.90
14095;DHT22;18096;48.142;16.290;2022-10-16T17:23:38;14.70;99.90